Time;durP1;ratioP1;P1;durP2;ratioP2;P2;SDS_P1;SDS_P2;PMS_P1;PMS_P2;Temp;Humidity;BMP_temperature;BMP_pressure;BME280_temperature;BME280_humidity;BME280_pressure;Samples;Min_cycle;Max_cycle;Signal;HPM_P1;HPM_P2
2022/08/01 00:01:48;;;;;;;3.60;3.00;;;;;;;15.27;100.00;99839.00;130078;1268;263697;-71
2022/08/01 00:04:55;;;;;;;4.80;3.30;;;;;;;15.23;100.00;99833.91;130043;1268;108912;-72
2022/08/01 00:08:01;;;;;;;3.40;2.50;;;;;;;15.20;100.00;99838.10;130169;1268;108753;-71
2022/08/01 00:11:08;;;;;;;4.70;3.00;;;;;;;15.19;100.00;99836.54;130247;1269;108850;-71
2022/08/01 00:14:13;;;;;;;4.40;2.90;;;;;;;15.15;99.99;99833.61;130179;1268;109879;-71
2022/08/01 00:17:19;;;;;;;4.30;3.00;;;;;;;15.12;100.00;99833.48;130170;1270;109954;-72
2022/08/01 00:20:24;;;;;;;5.60;3.40;;;;;;;15.05;99.94;99831.05;130205;1271;108751;-71
2022/08/01 00:23:30;;;;;;;6.20;2.70;;;;;;;14.98;100.00;99826.05;130171;1268;107427;-70
2022/08/01 00:26:35;;;;;;;3.30;2.50;;;;;;;14.94;100.00;99823.20;130092;1270;108544;-70
2022/08/01 00:29:41;;;;;;;4.80;2.60;;;;;;;14.88;100.00;99825.17;130090;1268;109600;-71
2022/08/01 00:32:46;;;;;;;5.60;3.10;;;;;;;14.82;99.98;99824.83;130215;1268;108634;-70
2022/08/01 00:35:51;;;;;;;5.30;3.30;;;;;;;14.76;100.00;99823.85;130100;1269;108731;-69
2022/08/01 00:38:58;;;;;;;3.20;2.40;;;;;;;14.67;100.00;99826.62;130091;1270;109598;-70
2022/08/01 00:42:08;;;;;;;3.10;2.70;;;;;;;14.61;99.98;99827.79;130072;1268;108309;-70
2022/08/01 00:45:14;;;;;;;4.70;3.30;;;;;;;14.58;100.00;99830.64;130149;1268;108118;-70
2022/08/01 00:48:20;;;;;;;5.80;3.80;;;;;;;14.59;99.99;99827.02;130080;1271;109629;-70
2022/08/01 00:51:27;;;;;;;7.20;3.60;;;;;;;14.57;100.00;99825.29;130045;1269;109050;-71
2022/08/01 00:54:33;;;;;;;3.50;2.90;;;;;;;14.52;99.87;99827.20;130222;1268;108223;-71
2022/08/01 00:57:39;;;;;;;6.10;3.30;;;;;;;14.45;99.78;99825.42;130227;1271;108944;-71
2022/08/01 01:00:45;;;;;;;4.00;3.70;;;;;;;14.40;99.83;99828.22;130279;1271;108916;-70
2022/08/01 01:03:51;;;;;;;5.80;3.90;;;;;;;14.33;99.70;99830.33;130107;1268;107327;-72
2022/08/01 01:07:05;;;;;;;4.50;3.50;;;;;;;14.24;99.86;99829.11;130203;1268;108794;-71
2022/08/01 01:10:18;;;;;;;4.90;3.60;;;;;;;14.19;100.00;99830.77;130150;1268;107627;-70
2022/08/01 01:13:34;;;;;;;4.90;3.80;;;;;;;14.13;100.00;99828.16;130121;1270;109004;-71
2022/08/01 01:16:44;;;;;;;5.70;4.30;;;;;;;14.14;99.88;99829.38;130084;1268;108572;-72
2022/08/01 01:19:53;;;;;;;6.70;4.20;;;;;;;14.11;99.87;99828.65;130088;1268;107312;-72
2022/08/01 01:23:22;;;;;;;4.60;3.80;;;;;;;14.06;99.97;99832.38;130204;1268;107429;-71
2022/08/01 01:26:40;;;;;;;4.80;3.40;;;;;;;13.99;99.87;99835.73;130141;1268;108920;-72
2022/08/01 01:29:49;;;;;;;4.30;3.60;;;;;;;13.97;99.92;99835.77;130092;1272;109187;-70
2022/08/01 01:32:58;;;;;;;6.30;4.00;;;;;;;13.96;99.97;99835.50;130089;1268;108835;-72
2022/08/01 01:36:09;;;;;;;7.10;4.10;;;;;;;13.97;99.89;99835.06;130073;1268;107747;-72
2022/08/01 01:39:16;;;;;;;4.50;3.30;;;;;;;13.93;99.91;99834.63;130171;1268;107715;-72
2022/08/01 01:42:25;;;;;;;4.40;3.10;;;;;;;13.91;99.88;99835.36;130210;1268;108166;-72
2022/08/01 01:45:32;;;;;;;6.00;3.70;;;;;;;13.88;99.74;99830.44;130105;1269;108647;-73
2022/08/01 01:48:39;;;;;;;5.00;3.40;;;;;;;13.87;99.72;99832.29;130245;1268;107583;-72
2022/08/01 01:51:47;;;;;;;4.40;3.30;;;;;;;13.85;99.75;99832.30;130210;1268;107384;-72
2022/08/01 01:54:55;;;;;;;4.40;2.90;;;;;;;13.83;99.82;99836.27;130197;1268;108763;-71
2022/08/01 01:58:02;;;;;;;5.50;3.10;;;;;;;13.81;99.69;99833.20;130206;1268;108305;-71
2022/08/01 02:01:11;;;;;;;6.40;3.30;;;;;;;13.79;99.71;99838.02;130071;1268;109555;-72
2022/08/01 02:04:16;;;;;;;6.10;3.30;;;;;;;13.80;99.85;99839.04;130129;1268;108415;-71
2022/08/01 02:07:26;;;;;;;8.00;3.70;;;;;;;13.79;99.52;99838.94;130084;1268;107556;-71
2022/08/01 02:10:32;;;;;;;5.00;3.30;;;;;;;13.75;99.47;99838.10;130080;1268;108806;-72
2022/08/01 02:13:41;;;;;;;3.60;2.90;;;;;;;13.74;99.52;99841.34;130215;1268;108994;-72
2022/08/01 02:16:48;;;;;;;3.90;2.70;;;;;;;13.72;99.38;99833.69;130202;1268;109014;-71
2022/08/01 02:19:56;;;;;;;4.70;3.20;;;;;;;13.70;99.31;99834.24;130207;1268;108748;-70
2022/08/01 02:23:07;;;;;;;3.70;3.10;;;;;;;13.67;99.40;99834.23;130142;1268;108200;-70
2022/08/01 02:26:18;;;;;;;4.70;2.90;;;;;;;13.66;99.56;99839.38;130083;1268;108785;-69
2022/08/01 02:29:28;;;;;;;5.20;2.90;;;;;;;13.65;99.40;99837.05;130094;1268;110401;-69
2022/08/01 02:32:38;;;;;;;5.00;3.00;;;;;;;13.65;99.34;99839.94;130098;1268;108701;-69
2022/08/01 02:35:46;;;;;;;3.80;2.70;;;;;;;13.64;99.35;99839.09;130119;1268;108735;-71
2022/08/01 02:38:55;;;;;;;4.10;3.10;;;;;;;13.65;99.16;99841.88;130084;1268;108740;-70
2022/08/01 02:42:05;;;;;;;4.50;2.70;;;;;;;13.63;99.25;99838.17;130086;1268;108865;-70
2022/08/01 02:45:13;;;;;;;6.20;2.90;;;;;;;13.61;99.11;99838.39;130081;1268;108795;-72
2022/08/01 02:48:20;;;;;;;5.40;2.70;;;;;;;13.62;99.13;99837.61;130270;1268;109006;-72
2022/08/01 02:51:27;;;;;;;4.50;2.70;;;;;;;13.62;99.07;99839.06;130221;1268;108967;-71
2022/08/01 02:54:33;;;;;;;4.00;3.10;;;;;;;13.65;99.33;99844.79;130158;1268;107615;-71
2022/08/01 02:57:40;;;;;;;4.80;3.10;;;;;;;13.63;99.11;99840.40;130129;1268;109663;-70
2022/08/01 03:00:47;;;;;;;5.30;3.20;;;;;;;13.60;99.17;99837.84;130057;1268;107583;-70
2022/08/01 03:03:53;;;;;;;3.20;2.90;;;;;;;13.60;99.21;99837.54;130107;1268;107525;-70
2022/08/01 03:07:01;;;;;;;4.00;3.50;;;;;;;13.61;99.21;99835.77;130095;1268;107775;-70
2022/08/01 03:10:09;;;;;;;5.70;3.70;;;;;;;13.60;99.16;99832.98;130216;1268;108655;-70
2022/08/01 03:13:16;;;;;;;5.40;3.00;;;;;;;13.60;99.10;99835.39;130133;1268;107239;-71
2022/08/01 03:16:24;;;;;;;4.30;3.10;;;;;;;13.58;99.07;99838.42;130246;1268;108596;-71
2022/08/01 03:19:32;;;;;;;4.70;3.30;;;;;;;13.58;99.24;99839.50;130242;1268;108689;-71
2022/08/01 03:22:40;;;;;;;5.00;3.30;;;;;;;13.59;99.01;99839.95;130252;1268;109684;-71
2022/08/01 03:25:48;;;;;;;6.00;3.70;;;;;;;13.58;99.00;99842.01;130192;1268;108665;-71
2022/08/01 03:28:59;;;;;;;4.70;3.20;;;;;;;13.57;99.13;99842.29;130247;1268;109732;-72
2022/08/01 03:32:06;;;;;;;4.40;3.00;;;;;;;13.56;99.22;99846.89;130151;1268;108625;-71
2022/08/01 03:35:12;;;;;;;3.20;2.90;;;;;;;13.57;99.15;99846.53;130111;1268;108855;-70
2022/08/01 03:38:22;;;;;;;4.70;3.10;;;;;;;13.58;99.13;99850.02;130086;1268;108611;-69
2022/08/01 03:41:31;;;;;;;4.80;3.80;;;;;;;13.60;99.18;99851.77;130086;1268;109195;-70
2022/08/01 03:44:39;;;;;;;6.10;3.90;;;;;;;13.61;99.11;99853.24;130743;1268;108709;-72
2022/08/01 03:47:47;;;;;;;5.90;3.10;;;;;;;13.61;99.11;99853.95;130408;1267;108984;-73
2022/08/01 03:50:54;;;;;;;4.30;3.10;;;;;;;13.62;99.08;99855.98;130329;1268;108802;-74
2022/08/01 03:54:02;;;;;;;4.70;3.50;;;;;;;13.66;99.17;99852.98;130321;1268;107903;-70
2022/08/01 03:57:10;;;;;;;4.90;4.00;;;;;;;13.67;98.94;99855.16;130264;1268;107644;-69
2022/08/01 04:00:18;;;;;;;9.60;5.40;;;;;;;13.68;99.00;99856.31;130211;1268;108696;-72
2022/08/01 04:03:24;;;;;;;5.40;4.00;;;;;;;13.71;99.14;99859.95;130214;1268;108964;-72
2022/08/01 04:06:29;;;;;;;5.80;4.20;;;;;;;13.73;98.88;99863.23;130202;1268;109682;-71
2022/08/01 04:09:35;;;;;;;6.40;3.90;;;;;;;13.75;98.85;99867.48;130270;1268;108603;-70
2022/08/01 04:12:41;;;;;;;6.10;4.00;;;;;;;13.83;99.00;99864.58;130190;1268;108865;-70
2022/08/01 04:15:46;;;;;;;4.30;3.90;;;;;;;14.04;99.41;99858.89;130134;1268;108667;-69
2022/08/01 04:18:52;;;;;;;4.10;3.70;;;;;;;14.31;99.60;99853.25;130128;1268;108941;-72
2022/08/01 04:21:58;;;;;;;4.20;3.60;;;;;;;14.57;99.32;99853.55;130311;1268;109220;-72
2022/08/01 04:25:08;;;;;;;4.20;3.60;;;;;;;14.84;99.34;99853.56;130257;1268;109831;-72
2022/08/01 04:28:17;;;;;;;4.80;3.60;;;;;;;15.14;99.20;99854.55;130360;1268;108798;-72
2022/08/01 04:31:25;;;;;;;4.40;3.60;;;;;;;15.42;99.23;99857.24;130295;1268;108556;-72
2022/08/01 04:34:34;;;;;;;5.00;3.80;;;;;;;15.67;97.94;99859.80;130379;1268;108720;-72
2022/08/01 04:37:41;;;;;;;5.20;3.80;;;;;;;15.85;98.62;99859.60;130369;1268;108849;-72
2022/08/01 04:40:47;;;;;;;4.90;4.30;;;;;;;16.10;98.40;99860.45;130243;1268;108140;-74
2022/08/01 04:43:54;;;;;;;6.50;4.10;;;;;;;16.25;97.94;99859.75;130282;1268;108828;-70
2022/08/01 04:47:00;;;;;;;3.50;3.20;;;;;;;16.39;98.05;99863.66;130274;1268;107606;-75
2022/08/01 04:50:09;;;;;;;4.40;3.80;;;;;;;16.55;97.68;99860.75;130354;1268;108923;-72
2022/08/01 04:53:17;;;;;;;4.40;4.00;;;;;;;16.70;97.29;99864.52;130287;1268;109129;-73
2022/08/01 04:56:23;;;;;;;5.20;4.70;;;;;;;16.86;98.02;99867.58;130373;1268;108548;-72
2022/08/01 04:59:40;;;;;;;5.10;3.70;;;;;;;17.07;98.19;99874.46;130335;1268;108699;-75
2022/08/01 05:02:46;;;;;;;4.90;3.50;;;;;;;17.23;97.75;99873.48;130263;1268;107696;-71
2022/08/01 05:05:51;;;;;;;6.70;3.90;;;;;;;17.33;97.08;99876.27;130198;1268;109090;-71
2022/08/01 05:08:57;;;;;;;5.70;3.80;;;;;;;17.42;97.03;99877.52;130286;1268;109143;-76
2022/08/01 05:12:03;;;;;;;4.20;3.80;;;;;;;17.42;96.86;99881.77;130356;1268;108972;-73
2022/08/01 05:15:10;;;;;;;3.30;2.60;;;;;;;17.51;97.30;99879.26;130322;1268;109564;-73
2022/08/01 05:18:16;;;;;;;2.50;1.80;;;;;;;17.77;97.25;99879.73;130325;1268;108931;-75
2022/08/01 05:21:21;;;;;;;3.80;3.40;;;;;;;18.11;97.36;99880.59;130357;1268;109659;-72
2022/08/01 05:24:28;;;;;;;6.80;2.80;;;;;;;18.46;97.06;99881.19;130482;1267;108793;-72
2022/08/01 05:27:38;;;;;;;3.90;3.20;;;;;;;18.74;96.08;99879.41;130141;1268;107210;-71
2022/08/01 05:30:43;;;;;;;6.60;3.60;;;;;;;18.81;94.68;99881.70;130148;1268;108560;-71
2022/08/01 05:33:49;;;;;;;4.20;3.70;;;;;;;18.78;94.99;99882.96;130168;1268;108852;-70
2022/08/01 05:36:54;;;;;;;4.30;3.60;;;;;;;18.93;94.37;99885.39;129887;1268;107705;-70
2022/08/01 05:40:00;;;;;;;4.50;3.20;;;;;;;18.87;93.05;99887.26;130144;1268;108849;-71
2022/08/01 05:43:05;;;;;;;5.30;3.90;;;;;;;18.90;94.34;99886.58;130143;1267;108906;-70
2022/08/01 05:46:10;;;;;;;3.70;3.30;;;;;;;18.77;93.05;99886.34;130176;1268;109764;-70
2022/08/01 05:49:16;;;;;;;5.80;3.90;;;;;;;18.69;93.22;99885.54;130160;1268;108880;-71
2022/08/01 05:52:21;;;;;;;5.50;4.20;;;;;;;18.52;92.27;99884.33;130208;1268;108894;-71
2022/08/01 05:55:27;;;;;;;5.70;4.40;;;;;;;18.29;92.50;99888.23;130185;1268;108764;-70
2022/08/01 05:58:32;;;;;;;5.60;4.40;;;;;;;18.02;92.34;99893.95;130169;1268;109741;-71
2022/08/01 06:01:38;;;;;;;5.40;4.00;;;;;;;17.87;93.33;99891.31;130140;1268;108847;-70
2022/08/01 06:04:43;;;;;;;4.80;3.90;;;;;;;17.85;92.68;99890.69;130222;1267;107877;-70
2022/08/01 06:07:48;;;;;;;5.20;3.60;;;;;;;17.60;93.03;99890.56;130126;1268;108584;-70
2022/08/01 06:10:54;;;;;;;4.80;3.60;;;;;;;17.51;94.04;99888.98;130102;1268;108738;-70
2022/08/01 06:13:59;;;;;;;5.70;3.70;;;;;;;17.54;94.41;99889.61;130157;1268;109547;-71
2022/08/01 06:17:04;;;;;;;4.70;3.80;;;;;;;17.68;94.75;99888.98;130094;1268;108639;-71
2022/08/01 06:20:12;;;;;;;3.90;3.40;;;;;;;17.70;93.09;99890.34;130237;1268;109893;-70
2022/08/01 06:23:17;;;;;;;4.20;3.10;;;;;;;17.53;92.77;99890.98;130186;1268;108698;-70
2022/08/01 06:26:23;;;;;;;4.20;3.50;;;;;;;17.47;93.92;99889.86;130152;1268;108823;-70
2022/08/01 06:29:30;;;;;;;4.10;3.40;;;;;;;17.56;94.42;99892.01;130124;1268;108658;-71
2022/08/01 06:32:36;;;;;;;3.20;2.40;;;;;;;17.80;94.82;99888.11;130150;1267;109581;-71
2022/08/01 06:35:41;;;;;;;5.80;2.90;;;;;;;18.03;94.52;99891.04;130159;1268;109604;-71
2022/08/01 06:38:46;;;;;;;3.20;2.90;;;;;;;18.20;92.93;99892.29;130164;1268;108800;-70
2022/08/01 06:41:52;;;;;;;4.50;2.70;;;;;;;18.16;92.43;99897.03;130145;1267;109509;-70
2022/08/01 06:44:57;;;;;;;3.30;2.80;;;;;;;18.20;93.05;99901.29;130181;1268;108808;-71
2022/08/01 06:48:03;;;;;;;4.20;2.80;;;;;;;18.25;92.93;99901.87;130128;1268;109675;-70
2022/08/01 06:51:08;;;;;;;3.30;3.00;;;;;;;18.43;93.83;99905.92;130127;1268;107776;-71
2022/08/01 06:54:14;;;;;;;4.70;3.30;;;;;;;18.55;92.12;99903.23;130148;1268;109314;-71
2022/08/01 06:57:19;;;;;;;3.90;3.20;;;;;;;18.37;91.32;99906.02;130230;1267;108452;-71
2022/08/01 07:00:26;;;;;;;3.90;2.80;;;;;;;18.29;92.41;99903.18;130302;1268;109874;-70
2022/08/01 07:03:32;;;;;;;5.90;3.00;;;;;;;18.47;92.65;99908.48;130306;1268;108722;-71
2022/08/01 07:06:37;;;;;;;3.70;2.80;;;;;;;18.61;91.76;99902.16;130287;1268;108745;-71
2022/08/01 07:09:43;;;;;;;4.00;2.60;;;;;;;18.74;92.41;99900.86;130251;1267;108693;-71
2022/08/01 07:12:48;;;;;;;6.90;3.60;;;;;;;18.84;90.88;99892.69;130266;1268;108735;-71
2022/08/01 07:15:54;;;;;;;8.40;3.10;;;;;;;18.77;91.28;99894.27;130189;1268;109000;-71
2022/08/01 07:18:59;;;;;;;5.90;3.00;;;;;;;18.83;91.76;99891.89;130123;1268;108784;-71
2022/08/01 07:22:05;;;;;;;4.30;3.20;;;;;;;18.89;91.37;99892.48;130304;1268;108710;-71
2022/08/01 07:25:11;;;;;;;3.50;2.90;;;;;;;18.88;90.38;99892.51;130319;1268;108837;-71
2022/08/01 07:28:16;;;;;;;2.50;2.30;;;;;;;18.92;91.29;99891.73;130323;1268;108824;-72
2022/08/01 07:31:22;;;;;;;6.20;3.50;;;;;;;19.16;91.22;99893.78;130325;1268;108914;-71
2022/08/01 07:34:28;;;;;;;5.10;3.30;;;;;;;19.28;90.98;99895.53;130267;1267;108905;-71
2022/08/01 07:37:33;;;;;;;2.50;2.30;;;;;;;19.37;90.75;99900.55;130231;1268;108705;-70
2022/08/01 07:40:39;;;;;;;5.90;3.00;;;;;;;19.48;90.24;99901.88;130195;1267;108647;-71
2022/08/01 07:43:44;;;;;;;3.40;3.00;;;;;;;19.48;90.12;99909.16;130258;1267;108322;-70
2022/08/01 07:46:49;;;;;;;2.90;2.40;;;;;;;19.63;90.77;99910.87;130129;1267;108885;-70
2022/08/01 07:49:59;;;;;;;4.20;2.90;;;;;;;19.82;90.50;99908.74;130188;1268;108837;-84
2022/08/01 07:53:05;;;;;;;3.80;3.00;;;;;;;19.93;90.37;99908.90;130410;1268;108846;-84
2022/08/01 07:56:10;;;;;;;2.70;2.20;;;;;;;20.06;90.25;99897.14;130368;1268;109033;-73
2022/08/01 07:59:15;;;;;;;3.10;2.20;;;;;;;20.23;90.14;99894.66;130307;1268;108615;-74
2022/08/01 08:02:21;;;;;;;3.50;3.20;;;;;;;20.38;89.91;99891.98;130340;1268;108859;-74
2022/08/01 08:05:27;;;;;;;5.70;3.10;;;;;;;20.38;87.44;99893.54;130300;1267;108933;-74
2022/08/01 08:08:34;;;;;;;2.80;2.60;;;;;;;20.19;86.64;99892.80;130348;1268;107719;-74
2022/08/01 08:11:39;;;;;;;3.80;2.90;;;;;;;20.22;87.77;99893.08;130341;1267;108571;-74
2022/08/01 08:14:45;;;;;;;4.00;3.00;;;;;;;20.25;85.58;99898.48;130400;1268;108833;-74
2022/08/01 08:17:50;;;;;;;3.30;2.30;;;;;;;20.12;85.83;99892.27;130280;1268;108699;-74
2022/08/01 08:20:55;;;;;;;4.80;2.40;;;;;;;20.13;87.15;99890.27;130286;1267;108873;-74
2022/08/01 08:27:24;;;;;;;4.40;2.60;;;;;;;20.44;87.84;99894.46;130319;1268;108753;-74
2022/08/01 08:30:29;;;;;;;3.20;2.80;;;;;;;20.51;84.04;99898.10;130241;1268;108649;-74
2022/08/01 08:33:35;;;;;;;3.60;3.00;;;;;;;20.48;85.29;99899.38;130241;1268;108778;-74
2022/08/01 08:36:40;;;;;;;2.90;2.40;;;;;;;20.60;86.28;99894.25;130307;1268;108842;-74
2022/08/01 08:39:46;;;;;;;2.80;2.40;;;;;;;20.73;86.73;99894.05;130240;1267;108630;-73
2022/08/01 08:42:51;;;;;;;2.80;2.60;;;;;;;20.87;85.99;99897.45;130298;1268;108293;-74
2022/08/01 08:45:58;;;;;;;4.50;2.60;;;;;;;20.87;82.13;99900.05;130290;1267;109786;-74
2022/08/01 08:49:06;;;;;;;2.50;2.30;;;;;;;20.82;82.69;99902.57;130293;1267;109897;-74
2022/08/01 08:52:13;;;;;;;3.70;2.20;;;;;;;20.90;84.32;99898.62;130292;1267;108784;-74
2022/08/01 08:55:19;;;;;;;5.00;2.70;;;;;;;20.96;82.77;99899.92;130290;1268;108684;-74
2022/08/01 08:58:28;;;;;;;2.00;1.80;;;;;;;20.97;83.69;99903.08;130237;1267;109023;-74
2022/08/01 09:01:34;;;;;;;3.10;2.30;;;;;;;21.05;84.31;99898.25;130299;1268;107178;-74
2022/08/01 09:04:41;;;;;;;3.10;2.00;;;;;;;21.10;84.10;99899.13;130314;1268;108576;-74
2022/08/01 09:07:46;;;;;;;2.40;2.10;;;;;;;21.13;83.89;99902.60;130283;1268;108177;-74
2022/08/01 09:10:52;;;;;;;3.80;2.60;;;;;;;21.11;79.77;99904.45;130298;1267;108801;-74
2022/08/01 09:14:08;;;;;;;4.00;2.50;;;;;;;21.00;81.75;99906.70;130329;1268;108962;-75
2022/08/01 09:17:14;;;;;;;2.60;1.90;;;;;;;21.02;80.38;99911.36;130391;1268;108772;-75
2022/08/01 09:20:26;;;;;;;2.30;1.80;;;;;;;21.10;81.41;99910.33;130336;1268;108825;-75
2022/08/01 09:23:35;;;;;;;2.00;1.80;;;;;;;21.22;79.41;99911.81;130399;1268;108736;-75
2022/08/01 09:26:41;;;;;;;3.50;2.20;;;;;;;21.23;80.35;99907.71;130290;1268;108941;-75
2022/08/01 09:29:46;;;;;;;4.10;2.40;;;;;;;21.32;81.63;99905.38;130334;1268;108142;-75
2022/08/01 09:33:00;;;;;;;3.20;2.20;;;;;;;21.43;79.55;99910.17;130314;1268;108736;-74
2022/08/01 09:36:06;;;;;;;3.50;2.20;;;;;;;21.41;76.76;99907.97;130352;1267;108828;-75
2022/08/01 09:39:16;;;;;;;2.80;2.50;;;;;;;21.42;76.68;99915.23;130297;1268;108439;-75
2022/08/01 09:42:24;;;;;;;2.50;2.30;;;;;;;21.36;75.91;99915.55;130306;1268;109152;-75
2022/08/01 09:45:37;;;;;;;4.00;2.50;;;;;;;21.42;78.60;99915.29;130357;1268;109029;-75
2022/08/01 09:48:58;;;;;;;2.30;1.90;;;;;;;21.57;79.16;99914.86;130278;1268;108806;-75
2022/08/01 09:52:15;;;;;;;3.30;1.70;;;;;;;21.78;78.68;99914.71;130362;1267;108697;-75
2022/08/01 09:55:23;;;;;;;2.10;1.90;;;;;;;21.94;76.28;99917.05;130314;1268;108665;-75
2022/08/01 09:58:29;;;;;;;2.60;1.80;;;;;;;22.10;76.51;99913.82;130290;1268;109047;-75
2022/08/01 10:01:47;;;;;;;5.60;2.00;;;;;;;22.23;76.91;99918.13;130319;1267;108846;-75
2022/08/01 10:04:54;;;;;;;1.90;1.60;;;;;;;22.36;77.04;99920.13;130306;1268;108674;-75
2022/08/01 10:08:03;;;;;;;2.40;1.80;;;;;;;22.52;77.24;99919.77;130330;1268;108835;-75
2022/08/01 10:11:10;;;;;;;3.00;1.80;;;;;;;22.74;77.51;99914.66;130336;1267;108642;-75
2022/08/01 10:14:19;;;;;;;2.80;1.80;;;;;;;22.77;73.73;99914.61;130350;1267;108763;-75
2022/08/01 10:17:27;;;;;;;2.10;1.60;;;;;;;22.79;76.11;99915.35;130283;1268;108073;-75
2022/08/01 10:20:33;;;;;;;2.40;2.20;;;;;;;22.87;73.37;99918.40;130300;1268;108860;-75
2022/08/01 10:23:40;;;;;;;2.30;1.80;;;;;;;22.83;74.83;99914.77;130368;1265;108756;-77
2022/08/01 10:26:48;;;;;;;2.90;2.10;;;;;;;22.91;74.92;99916.66;130369;1268;107674;-75
2022/08/01 10:30:03;;;;;;;2.90;2.30;;;;;;;22.89;73.15;99914.61;130355;1267;108858;-75
2022/08/01 10:33:08;;;;;;;4.10;2.10;;;;;;;22.82;72.91;99917.19;130330;1267;107692;-75
2022/08/01 10:36:14;;;;;;;3.50;1.90;;;;;;;22.83;73.83;99912.64;130276;1267;109157;-75
2022/08/01 10:39:20;;;;;;;2.60;2.10;;;;;;;22.89;74.51;99909.49;130268;1267;109085;-75
2022/08/01 10:42:27;;;;;;;5.60;2.10;;;;;;;22.80;70.96;99911.88;130335;1267;108688;-75
2022/08/01 10:45:33;;;;;;;4.40;2.10;;;;;;;22.65;72.10;99911.70;130316;1268;109822;-76
2022/08/01 10:48:50;;;;;;;2.40;2.00;;;;;;;22.62;72.74;99908.14;130372;1267;108747;-75
2022/08/01 10:51:56;;;;;;;2.10;1.70;;;;;;;22.58;73.69;99905.96;130352;1268;108855;-76
2022/08/01 10:55:10;;;;;;;2.40;1.80;;;;;;;22.62;74.39;99908.31;130323;1268;109011;-75
2022/08/01 10:58:20;;;;;;;2.20;2.00;;;;;;;22.66;72.15;99899.98;130364;1268;106987;-75
2022/08/01 11:01:28;;;;;;;2.40;2.20;;;;;;;22.65;71.98;99902.19;130322;1268;108862;-76
2022/08/01 11:04:49;;;;;;;1.90;1.80;;;;;;;22.67;72.35;99892.66;130303;1267;107738;-75
2022/08/01 11:07:54;;;;;;;;;;;;;;;22.72;73.04;99891.61;130344;1267;107613;-75
2022/08/01 11:11:04;;;;;;;2.10;1.80;;;;;;;22.78;73.46;99887.64;130404;1268;108682;-76
2022/08/01 11:14:12;;;;;;;3.40;1.90;;;;;;;22.82;73.24;99886.14;130369;1267;108863;-75
2022/08/01 11:17:38;;;;;;;2.40;1.70;;;;;;;22.78;70.46;99890.25;130420;1267;108770;-75
2022/08/01 11:20:58;;;;;;;2.30;1.90;;;;;;;22.64;68.47;99893.95;130413;1268;108854;-75
2022/08/01 11:24:03;;;;;;;2.30;1.80;;;;;;;22.60;68.45;99892.28;130404;1267;107622;-76
2022/08/01 11:27:20;;;;;;;1.70;1.50;;;;;;;22.70;71.00;99890.98;130283;1268;107761;-76
2022/08/01 11:30:27;;;;;;;3.00;1.90;;;;;;;22.77;70.14;99885.16;130363;1268;108979;-76
2022/08/01 11:33:51;;;;;;;2.20;1.70;;;;;;;22.82;69.61;99884.71;130368;1268;108775;-75
2022/08/01 11:37:25;;;;;;;2.00;1.80;;;;;;;22.82;65.12;99890.17;130330;1268;108927;-76
2022/08/01 11:40:31;;;;;;;2.30;1.70;;;;;;;22.86;68.22;99890.14;130355;1267;108788;-76
2022/08/01 11:43:36;;;;;;;2.00;1.70;;;;;;;23.02;67.85;99890.59;130288;1268;107730;-76
2022/08/01 11:47:02;;;;;;;3.40;1.70;;;;;;;23.20;69.10;99887.84;130292;1267;108781;-76
2022/08/01 11:50:28;;;;;;;2.10;1.50;;;;;;;23.40;69.17;99890.85;130371;1268;108855;-76
2022/08/01 11:53:37;;;;;;;2.10;1.60;;;;;;;23.52;68.98;99889.35;130292;1267;108822;-76
2022/08/01 11:56:42;;;;;;;1.60;1.50;;;;;;;23.62;69.21;99893.34;130348;1267;108133;-75
2022/08/01 11:59:50;;;;;;;2.30;1.60;;;;;;;23.74;68.61;99893.53;130345;1267;108707;-76
2022/08/01 12:03:01;;;;;;;1.90;1.80;;;;;;;23.82;68.41;99895.52;130152;1267;326259;-76
2022/08/01 12:06:07;;;;;;;2.00;1.80;;;;;;;23.95;68.61;99897.23;130319;1267;108596;-76
2022/08/01 12:09:23;;;;;;;3.20;1.90;;;;;;;24.08;68.36;99893.23;130339;1267;108783;-76
2022/08/01 12:12:29;;;;;;;3.00;1.90;;;;;;;24.22;66.67;99892.88;130285;1267;108765;-76
2022/08/01 12:15:37;;;;;;;1.90;1.60;;;;;;;24.19;65.36;99891.36;130422;1267;108225;-76
2022/08/01 12:18:43;;;;;;;2.30;1.80;;;;;;;24.20;66.18;99888.54;130290;1267;108685;-76
2022/08/01 12:22:07;;;;;;;2.50;1.70;;;;;;;24.23;66.50;99888.52;130113;1268;108967;-76
2022/08/01 12:25:15;;;;;;;1.80;1.70;;;;;;;24.27;67.20;99886.29;130371;1268;108656;-76
2022/08/01 12:28:20;;;;;;;2.30;1.50;;;;;;;24.36;67.37;99880.83;130330;1267;108976;-76
2022/08/01 12:31:35;;;;;;;2.40;1.70;;;;;;;24.43;67.51;99884.19;130361;1267;109139;-75
2022/08/01 12:34:40;;;;;;;2.00;1.90;;;;;;;24.54;67.11;99882.29;130332;1268;108914;-75
2022/08/01 12:37:47;;;;;;;3.80;1.90;;;;;;;24.57;64.57;99880.64;130374;1268;108900;-76
2022/08/01 12:40:53;;;;;;;1.90;1.70;;;;;;;24.51;64.52;99873.91;130301;1266;108710;-76
2022/08/01 12:43:58;;;;;;;2.50;1.70;;;;;;;24.52;65.80;99870.70;130377;1268;108902;-76
2022/08/01 12:47:06;;;;;;;1.90;1.70;;;;;;;24.54;66.12;99876.02;130294;1267;108890;-76
2022/08/01 12:50:15;;;;;;;2.40;1.60;;;;;;;24.54;66.13;99873.01;130320;1267;108897;-76
2022/08/01 12:53:21;;;;;;;2.70;1.70;;;;;;;24.51;66.30;99875.38;130308;1268;108529;-76
2022/08/01 12:56:35;;;;;;;3.80;2.10;;;;;;;24.47;65.45;99878.91;130408;1268;108973;-76
2022/08/01 12:59:40;;;;;;;2.00;1.80;;;;;;;24.44;65.65;99877.11;130319;1267;108772;-76
2022/08/01 13:02:47;;;;;;;3.50;1.90;;;;;;;24.47;66.05;99873.11;130385;1267;107294;-76
2022/08/01 13:05:54;;;;;;;3.30;1.70;;;;;;;24.50;65.50;99876.11;130360;1267;108877;-76
2022/08/01 13:09:08;;;;;;;2.80;1.70;;;;;;;24.52;65.55;99878.82;130285;1268;108532;-76
2022/08/01 13:12:14;;;;;;;2.10;1.60;;;;;;;24.54;65.33;99876.23;130340;1268;108709;-76
2022/08/01 13:15:27;;;;;;;2.40;1.70;;;;;;;24.60;65.58;99875.75;130286;1268;108733;-77
2022/08/01 13:18:34;;;;;;;3.20;1.70;;;;;;;24.69;65.73;99873.90;130337;1268;107573;-76
2022/08/01 13:21:39;;;;;;;1.60;1.50;;;;;;;24.78;65.42;99872.64;130407;1268;108783;-76
2022/08/01 13:24:45;;;;;;;2.00;1.70;;;;;;;24.89;65.28;99873.08;130324;1268;108810;-76
2022/08/01 13:28:10;;;;;;;1.60;1.40;;;;;;;24.97;65.11;99874.24;130339;1268;108721;-76
2022/08/01 13:31:16;;;;;;;3.40;2.00;;;;;;;25.08;65.17;99874.46;130347;1268;107373;-75
2022/08/01 13:34:32;;;;;;;1.80;1.70;;;;;;;25.18;64.93;99876.42;130324;1268;108950;-76
2022/08/01 13:37:38;;;;;;;1.90;1.70;;;;;;;25.24;63.87;99874.08;130366;1268;108909;-75
2022/08/01 13:40:43;;;;;;;2.20;2.00;;;;;;;25.20;63.65;99878.39;130405;1268;108729;-75
2022/08/01 13:43:49;;;;;;;3.50;1.90;;;;;;;25.20;63.26;99878.24;130419;1268;108752;-75
2022/08/01 13:46:55;;;;;;;1.70;1.60;;;;;;;25.29;63.66;99876.21;130356;1268;109003;-75
2022/08/01 13:50:02;;;;;;;2.20;2.00;;;;;;;25.35;63.06;99880.80;130333;1268;108754;-75
2022/08/01 13:53:09;;;;;;;1.80;1.70;;;;;;;25.34;62.57;99881.17;130308;1268;107592;-75
2022/08/01 13:56:15;;;;;;;2.00;1.80;;;;;;;25.35;62.24;99882.28;130372;1268;108193;-75
2022/08/01 13:59:22;;;;;;;2.30;1.70;;;;;;;25.34;61.58;99879.54;130349;1268;106967;-77
2022/08/01 14:02:27;;;;;;;4.00;1.80;;;;;;;25.38;61.88;99878.04;130488;1268;108834;-76
2022/08/01 14:05:33;;;;;;;2.10;1.90;;;;;;;25.51;62.25;99876.83;130414;1268;108973;-76
2022/08/01 14:08:39;;;;;;;2.90;1.80;;;;;;;25.64;61.49;99876.27;130430;1268;107617;-75
2022/08/01 14:11:44;;;;;;;2.50;1.90;;;;;;;25.75;61.59;99877.17;130448;1268;108771;-76
2022/08/01 14:14:50;;;;;;;2.40;1.70;;;;;;;25.84;61.42;99875.36;130413;1268;109845;-76
2022/08/01 14:17:55;;;;;;;2.20;2.00;;;;;;;25.86;60.28;99872.92;130309;1268;108903;-76
2022/08/01 14:21:00;;;;;;;3.80;2.10;;;;;;;25.75;60.43;99868.64;130388;1267;108770;-76
2022/08/01 14:24:07;;;;;;;2.70;2.00;;;;;;;25.55;59.53;99878.77;130465;1267;107368;-76
2022/08/01 14:27:12;;;;;;;2.20;2.00;;;;;;;25.41;60.79;99881.07;130381;1267;108819;-76